Decker Prairie, Texas
Current Conditions -  °F | °C
As of 10:53 AM on Friday 28 Nov 2014 (Local Time) from KDWH Reporting Station
Clear Clear  
Wind Chill: 65°   Ceiling: Unl
Heat Index: 65°   Visibility: 10mi
Dew Point: 50°   Wind: 9mph
Humidity: 58%   Direction: 150°SSE
Pressure: 30.32"   Gusts: NA
Location:  30.2162°N, 95.7526°W
Report Text: KDWH 281653Z 15008KT 10SM CLR 18/10 A3032 RMK AO2 SLP265 T01830100
Loading
Personal Weather Stations






























Interactive Weather Map New forecast layout! Learn more

10-Day Weather Forecast

Advertisements
Track Severe Weather on mobile